Time;durP1;ratioP1;P1;durP2;ratioP2;P2;SDS_P1;SDS_P2;PMS_P1;PMS_P2;Temp;Humidity;BMP_temperature;BMP_pressure;BME280_temperature;BME280_humidity;BME280_pressure;Samples;Min_cycle;Max_cycle;Signal;HPM_P1;HPM_P2
2021/03/01 00:01:40;;;;;;;15.48;5.68;;;;;;;;;;5003849;28;20057;-54
2021/03/01 00:04:06;;;;;;;11.30;4.95;;;;;;;;;;4992546;28;20115;-57
2021/03/01 00:06:32;;;;;;;12.00;5.45;;;;;;;;;;5002029;28;20413;-52
2021/03/01 00:08:58;;;;;;;14.52;5.60;;;;;;;;;;5001514;28;20057;-55
2021/03/01 00:11:24;;;;;;;13.70;5.25;;;;;;;;;;5002656;28;20144;-54
2021/03/01 00:13:51;;;;;;;17.23;6.50;;;;;;;;;;5000361;28;20038;-57
2021/03/01 00:16:17;;;;;;;13.43;5.50;;;;;;;;;;5005835;28;20034;-54
2021/03/01 00:18:43;;;;;;;12.27;4.95;;;;;;;;;;4998241;28;20030;-55
2021/03/01 00:21:09;;;;;;;13.25;5.65;;;;;;;;;;5003922;28;20034;-51
2021/03/01 00:23:35;;;;;;;16.10;6.25;;;;;;;;;;4999776;28;20030;-54
2021/03/01 00:26:01;;;;;;;13.93;5.03;;;;;;;;;;5002654;28;20050;-53
2021/03/01 00:28:27;;;;;;;13.68;5.88;;;;;;;;;;5001384;28;20047;-54
2021/03/01 00:30:54;;;;;;;13.88;5.63;;;;;;;;;;4999778;28;20150;-52
2021/03/01 00:33:20;;;;;;;13.35;5.45;;;;;;;;;;4996668;28;20042;-52
2021/03/01 00:35:48;;;;;;;16.65;7.18;;;;;;;;;;5013614;28;20108;-53
2021/03/01 00:38:14;;;;;;;15.13;5.75;;;;;;;;;;5022029;28;20094;-50
2021/03/01 00:40:40;;;;;;;18.50;7.20;;;;;;;;;;5004932;28;20034;-51
2021/03/01 00:43:06;;;;;;;15.35;5.60;;;;;;;;;;5002590;28;20046;-55
2021/03/01 00:45:32;;;;;;;15.07;5.18;;;;;;;;;;5001905;28;20053;-52
2021/03/01 00:47:59;;;;;;;14.48;4.97;;;;;;;;;;5005481;28;20045;-56
2021/03/01 00:50:25;;;;;;;13.73;5.32;;;;;;;;;;5006295;28;20123;-54
2021/03/01 00:52:51;;;;;;;18.73;7.03;;;;;;;;;;5021958;28;20050;-52
2021/03/01 00:55:17;;;;;;;19.25;7.35;;;;;;;;;;5017844;28;20056;-57
2021/03/01 00:57:43;;;;;;;16.67;6.18;;;;;;;;;;5022067;28;20045;-55
2021/03/01 01:00:10;;;;;;;19.67;7.00;;;;;;;;;;5014178;28;20038;-52
2021/03/01 01:02:36;;;;;;;19.45;6.45;;;;;;;;;;5003296;28;20045;-53
2021/03/01 01:05:03;;;;;;;16.80;6.40;;;;;;;;;;5001757;28;20178;-56
2021/03/01 01:07:29;;;;;;;18.00;6.47;;;;;;;;;;5003142;28;20054;-55
2021/03/01 01:09:55;;;;;;;13.65;5.57;;;;;;;;;;5003691;28;20035;-54
2021/03/01 01:12:21;;;;;;;14.38;5.70;;;;;;;;;;4999800;28;20064;-52
2021/03/01 01:14:47;;;;;;;22.58;7.57;;;;;;;;;;5001266;28;20053;-58
2021/03/01 01:17:13;;;;;;;19.58;6.78;;;;;;;;;;4997895;28;20121;-55
2021/03/01 01:19:41;;;;;;;16.00;6.72;;;;;;;;;;5021643;28;20033;-56
2021/03/01 01:22:08;;;;;;;19.85;7.07;;;;;;;;;;5005497;28;20074;-57
2021/03/01 01:24:34;;;;;;;18.38;6.88;;;;;;;;;;5002063;28;20042;-57
2021/03/01 01:27:00;;;;;;;17.80;6.85;;;;;;;;;;4998035;28;20042;-55
2021/03/01 01:29:26;;;;;;;24.60;7.55;;;;;;;;;;5002741;28;20104;-54
2021/03/01 01:31:54;;;;;;;26.40;8.57;;;;;;;;;;4999603;28;20079;-52
2021/03/01 01:34:20;;;;;;;18.35;7.32;;;;;;;;;;5002259;28;20037;-55
2021/03/01 01:36:46;;;;;;;18.73;6.82;;;;;;;;;;5004712;28;20048;-57
2021/03/01 01:39:13;;;;;;;18.75;6.90;;;;;;;;;;5022135;28;20120;-56
2021/03/01 01:41:40;;;;;;;20.20;7.05;;;;;;;;;;5018281;28;20053;-53
2021/03/01 01:44:06;;;;;;;19.55;7.32;;;;;;;;;;5006976;28;20065;-52
2021/03/01 01:46:32;;;;;;;24.90;9.07;;;;;;;;;;4999907;28;20042;-53
2021/03/01 01:48:58;;;;;;;21.67;7.30;;;;;;;;;;5001699;28;20057;-54
2021/03/01 01:51:25;;;;;;;20.63;7.55;;;;;;;;;;5002510;28;20054;-56
2021/03/01 01:53:51;;;;;;;20.42;7.60;;;;;;;;;;4997821;28;20483;-55
2021/03/01 01:56:18;;;;;;;25.88;7.50;;;;;;;;;;5003449;28;20049;-56
2021/03/01 01:58:44;;;;;;;17.83;6.85;;;;;;;;;;4999236;28;20042;-55
2021/03/01 02:01:10;;;;;;;22.25;8.15;;;;;;;;;;4990599;28;20052;-54
2021/03/01 02:03:39;;;;;;;26.17;8.40;;;;;;;;;;4999267;28;20086;-56
2021/03/01 02:06:09;;;;;;;21.77;8.40;;;;;;;;;;5002666;28;20050;-56
2021/03/01 02:08:40;;;;;;;24.40;7.95;;;;;;;;;;4999678;28;20127;-56
2021/03/01 02:11:11;;;;;;;18.92;6.75;;;;;;;;;;5003839;28;20050;-58
2021/03/01 02:13:41;;;;;;;22.33;7.82;;;;;;;;;;5000894;28;20049;-56
2021/03/01 02:16:09;;;;;;;28.05;8.60;;;;;;;;;;5001139;28;20046;-55
2021/03/01 02:18:35;;;;;;;22.53;7.40;;;;;;;;;;4998919;28;20042;-53
2021/03/01 02:21:08;;;;;;;20.63;7.00;;;;;;;;;;5001250;28;20298;-57
2021/03/01 02:23:35;;;;;;;29.65;8.32;;;;;;;;;;5005004;28;20123;-57
2021/03/01 02:26:02;;;;;;;19.63;6.70;;;;;;;;;;5021093;28;20033;-56
2021/03/01 02:28:29;;;;;;;22.33;8.27;;;;;;;;;;5015318;28;20080;-54
2021/03/01 02:30:57;;;;;;;26.48;8.27;;;;;;;;;;5002314;28;20053;-57
2021/03/01 02:33:25;;;;;;;24.92;8.73;;;;;;;;;;4997785;28;20162;-57
2021/03/01 02:35:53;;;;;;;26.92;9.50;;;;;;;;;;4990292;28;20045;-54
2021/03/01 02:38:21;;;;;;;28.88;8.63;;;;;;;;;;4998782;28;20038;-54
2021/03/01 02:40:49;;;;;;;20.83;8.15;;;;;;;;;;5014833;28;20041;-55
2021/03/01 02:43:16;;;;;;;27.00;9.63;;;;;;;;;;5003729;28;20042;-54
2021/03/01 02:45:43;;;;;;;25.58;8.95;;;;;;;;;;4992812;28;20054;-53
2021/03/01 02:48:10;;;;;;;28.45;10.00;;;;;;;;;;5000497;28;20065;-57
2021/03/01 02:50:36;;;;;;;26.92;9.55;;;;;;;;;;4997562;28;20045;-52
2021/03/01 02:53:03;;;;;;;29.63;9.98;;;;;;;;;;5003284;28;20049;-56
2021/03/01 02:55:29;;;;;;;26.52;8.52;;;;;;;;;;5008009;28;20045;-51
2021/03/01 02:57:57;;;;;;;23.42;8.77;;;;;;;;;;5021044;28;20385;-53
2021/03/01 03:00:23;;;;;;;28.30;9.95;;;;;;;;;;5016999;28;20045;-56
2021/03/01 03:02:50;;;;;;;28.48;8.60;;;;;;;;;;5024041;28;20041;-56
2021/03/01 03:05:17;;;;;;;19.33;7.07;;;;;;;;;;5015248;28;20030;-55
2021/03/01 03:07:45;;;;;;;20.65;7.75;;;;;;;;;;5006003;28;20034;-55
2021/03/01 03:10:13;;;;;;;22.38;7.45;;;;;;;;;;5003188;28;20046;-54
2021/03/01 03:12:40;;;;;;;28.05;9.95;;;;;;;;;;5003834;28;20038;-56
2021/03/01 03:15:11;;;;;;;22.50;8.35;;;;;;;;;;5001744;28;20056;-58
2021/03/01 03:17:38;;;;;;;29.13;9.50;;;;;;;;;;5023853;28;20124;-51
2021/03/01 03:20:05;;;;;;;25.75;9.15;;;;;;;;;;5023896;28;20038;-55
2021/03/01 03:22:31;;;;;;;28.73;9.43;;;;;;;;;;5020866;28;20118;-56
2021/03/01 03:24:57;;;;;;;26.52;8.93;;;;;;;;;;5025234;28;20049;-57
2021/03/01 03:27:23;;;;;;;26.52;8.55;;;;;;;;;;5019861;28;20042;-57
2021/03/01 03:29:49;;;;;;;28.38;9.80;;;;;;;;;;5024549;28;20056;-55
2021/03/01 03:32:16;;;;;;;22.70;8.50;;;;;;;;;;5020365;28;20038;-56
2021/03/01 03:34:42;;;;;;;29.02;9.10;;;;;;;;;;5022671;28;20041;-55
2021/03/01 03:37:09;;;;;;;23.05;8.38;;;;;;;;;;5011985;28;20042;-54
2021/03/01 03:39:39;;;;;;;28.73;9.63;;;;;;;;;;5006584;28;20038;-54
2021/03/01 03:42:05;;;;;;;26.25;8.52;;;;;;;;;;5009151;28;20037;-56
2021/03/01 03:44:32;;;;;;;28.52;9.10;;;;;;;;;;5006651;28;20421;-54
2021/03/01 03:47:00;;;;;;;21.70;8.63;;;;;;;;;;5001443;28;20045;-52
2021/03/01 03:49:28;;;;;;;26.98;7.90;;;;;;;;;;5003912;28;20034;-55
2021/03/01 03:51:57;;;;;;;23.15;7.82;;;;;;;;;;5000732;28;20042;-56
2021/03/01 03:54:24;;;;;;;25.30;9.32;;;;;;;;;;5004150;28;20049;-53
2021/03/01 03:56:52;;;;;;;24.85;9.55;;;;;;;;;;5001083;28;20581;-56
2021/03/01 03:59:19;;;;;;;22.02;7.43;;;;;;;;;;5003959;28;20047;-56
2021/03/01 04:01:49;;;;;;;23.08;7.85;;;;;;;;;;5001795;28;20049;-57
2021/03/01 04:04:15;;;;;;;24.15;8.68;;;;;;;;;;5021643;28;20066;-57
2021/03/01 04:06:43;;;;;;;24.88;8.02;;;;;;;;;;5023505;28;20066;-55
2021/03/01 04:09:10;;;;;;;21.83;7.80;;;;;;;;;;5000387;28;20043;-57
2021/03/01 04:11:39;;;;;;;19.60;6.80;;;;;;;;;;5002956;28;20053;-57
2021/03/01 04:14:05;;;;;;;18.73;6.90;;;;;;;;;;5014504;28;20030;-56
2021/03/01 04:16:33;;;;;;;21.13;8.00;;;;;;;;;;5022905;28;20041;-57
2021/03/01 04:19:01;;;;;;;19.40;7.28;;;;;;;;;;5019706;28;20065;-56
2021/03/01 04:21:28;;;;;;;25.35;8.70;;;;;;;;;;5021804;28;20123;-56
2021/03/01 04:23:55;;;;;;;22.42;8.07;;;;;;;;;;5008185;28;20042;-53
2021/03/01 04:26:21;;;;;;;24.80;8.52;;;;;;;;;;5004872;28;20120;-56
2021/03/01 04:28:48;;;;;;;21.13;7.68;;;;;;;;;;5009956;28;20116;-52
2021/03/01 04:31:14;;;;;;;25.98;9.57;;;;;;;;;;5023041;28;20034;-54
2021/03/01 04:33:42;;;;;;;22.52;8.25;;;;;;;;;;5019463;28;20045;-56
2021/03/01 04:36:09;;;;;;;22.85;7.10;;;;;;;;;;5023085;28;20048;-57
2021/03/01 04:38:35;;;;;;;17.88;7.13;;;;;;;;;;5011787;28;20054;-54
2021/03/01 04:41:03;;;;;;;17.33;6.45;;;;;;;;;;4983881;28;20042;-53
2021/03/01 04:43:30;;;;;;;20.17;7.63;;;;;;;;;;5008925;28;20054;-54
2021/03/01 04:45:56;;;;;;;21.33;7.40;;;;;;;;;;5022147;28;20042;-54
2021/03/01 04:48:23;;;;;;;20.73;7.43;;;;;;;;;;5022854;28;20041;-56
2021/03/01 04:50:49;;;;;;;21.60;7.88;;;;;;;;;;5019634;28;20042;-54
2021/03/01 04:53:16;;;;;;;20.42;7.95;;;;;;;;;;5023140;28;20531;-54
2021/03/01 04:55:42;;;;;;;17.73;7.30;;;;;;;;;;5004031;28;20042;-52
2021/03/01 04:58:10;;;;;;;20.95;7.80;;;;;;;;;;5002952;28;20042;-55
2021/03/01 05:00:37;;;;;;;22.00;7.70;;;;;;;;;;5001147;28;20038;-52
2021/03/01 05:03:04;;;;;;;25.10;7.80;;;;;;;;;;5004751;28;20050;-55
2021/03/01 05:05:30;;;;;;;21.17;8.20;;;;;;;;;;5013159;28;20069;-57
2021/03/01 05:07:58;;;;;;;23.60;8.70;;;;;;;;;;5025168;28;20087;-53
2021/03/01 05:10:24;;;;;;;16.45;6.30;;;;;;;;;;5017478;28;20617;-55
2021/03/01 05:12:50;;;;;;;20.13;8.65;;;;;;;;;;5022440;28;20061;-55
2021/03/01 05:15:17;;;;;;;21.17;7.22;;;;;;;;;;5015683;28;20489;-52
2021/03/01 05:17:44;;;;;;;24.60;7.75;;;;;;;;;;5001534;28;20050;-54
2021/03/01 05:20:11;;;;;;;22.45;7.78;;;;;;;;;;5002364;28;20049;-57
2021/03/01 05:22:37;;;;;;;17.15;7.00;;;;;;;;;;5018653;28;20198;-55
2021/03/01 05:25:03;;;;;;;19.40;7.15;;;;;;;;;;5018151;28;20054;-52
2021/03/01 05:27:32;;;;;;;22.88;6.57;;;;;;;;;;5001378;28;20042;-56
2021/03/01 05:29:58;;;;;;;16.85;6.40;;;;;;;;;;5002501;28;20049;-57
2021/03/01 05:32:25;;;;;;;21.92;8.60;;;;;;;;;;4998731;28;20034;-56
2021/03/01 05:34:51;;;;;;;19.80;7.85;;;;;;;;;;5001157;28;20388;-56
2021/03/01 05:37:16;;;;;;;19.60;6.93;;;;;;;;;;5013326;28;20026;-57
2021/03/01 05:39:43;;;;;;;19.13;7.15;;;;;;;;;;5021987;28;20153;-53
2021/03/01 05:42:10;;;;;;;20.50;7.82;;;;;;;;;;5004058;28;20042;-52
2021/03/01 05:44:37;;;;;;;25.73;7.63;;;;;;;;;;4983615;28;20035;-56
2021/03/01 05:47:03;;;;;;;19.73;7.07;;;;;;;;;;4988722;28;20037;-53
2021/03/01 05:49:30;;;;;;;17.02;6.25;;;;;;;;;;5003266;28;20136;-51
2021/03/01 05:51:58;;;;;;;22.25;9.00;;;;;;;;;;5007716;28;20187;-52
2021/03/01 05:54:25;;;;;;;21.25;7.88;;;;;;;;;;5020765;28;20030;-54
2021/03/01 05:56:51;;;;;;;21.40;8.20;;;;;;;;;;5014302;28;20054;-52
2021/03/01 05:59:19;;;;;;;20.33;7.20;;;;;;;;;;5003125;28;20049;-56
2021/03/01 06:01:45;;;;;;;17.90;6.53;;;;;;;;;;5002727;28;21460;-52
2021/03/01 06:04:11;;;;;;;18.65;7.85;;;;;;;;;;5041139;28;20037;-55
2021/03/01 06:06:38;;;;;;;20.33;7.93;;;;;;;;;;5039771;28;20041;-55
2021/03/01 06:09:04;;;;;;;20.42;7.80;;;;;;;;;;4988269;28;20471;-55
2021/03/01 06:11:30;;;;;;;19.40;7.60;;;;;;;;;;5022769;28;20049;-55
2021/03/01 06:13:56;;;;;;;20.05;6.93;;;;;;;;;;5023832;28;20054;-55
2021/03/01 06:16:22;;;;;;;23.15;7.97;;;;;;;;;;4997028;28;20072;-54
2021/03/01 06:18:48;;;;;;;20.63;7.18;;;;;;;;;;4991491;28;20131;-55
2021/03/01 06:21:15;;;;;;;19.75;7.13;;;;;;;;;;4995985;28;20053;-56
2021/03/01 06:23:42;;;;;;;22.65;7.68;;;;;;;;;;4991545;28;20061;-55
2021/03/01 06:26:22;;;;;;;17.75;6.97;;;;;;;;;;4995259;28;20045;-54
2021/03/01 06:28:48;;;;;;;22.65;6.93;;;;;;;;;;5011260;28;20054;-55
2021/03/01 06:31:33;;;;;;;17.60;7.15;;;;;;;;;;4996618;28;20054;-58
2021/03/01 06:34:14;;;;;;;18.73;7.38;;;;;;;;;;4991648;28;20045;-57
2021/03/01 06:36:55;;;;;;;19.08;7.10;;;;;;;;;;4993571;28;20025;-57
2021/03/01 06:39:25;;;;;;;19.10;6.75;;;;;;;;;;4988588;28;20367;-55
2021/03/01 06:41:52;;;;;;;18.77;7.35;;;;;;;;;;5010137;28;20045;-51
2021/03/01 06:44:18;;;;;;;20.33;8.13;;;;;;;;;;4978738;28;20108;-54
2021/03/01 06:46:49;;;;;;;23.48;8.20;;;;;;;;;;5012268;28;20058;-54
2021/03/01 06:49:15;;;;;;;18.20;7.63;;;;;;;;;;5010011;28;20046;-53
2021/03/01 06:51:41;;;;;;;19.75;7.25;;;;;;;;;;4995994;28;20034;-56
2021/03/01 06:54:08;;;;;;;30.70;9.70;;;;;;;;;;4996912;28;20053;-55
2021/03/01 06:56:39;;;;;;;22.63;7.55;;;;;;;;;;4995242;28;20057;-54
2021/03/01 06:59:12;;;;;;;21.08;7.57;;;;;;;;;;4993642;28;20054;-54
2021/03/01 07:01:53;;;;;;;22.23;7.82;;;;;;;;;;5010615;28;20050;-57
2021/03/01 07:04:20;;;;;;;22.08;7.95;;;;;;;;;;4981246;28;20075;-56
2021/03/01 07:06:47;;;;;;;18.80;7.53;;;;;;;;;;5009246;28;20063;-57
2021/03/01 07:09:13;;;;;;;20.35;7.70;;;;;;;;;;4994145;28;20078;-53
2021/03/01 07:11:42;;;;;;;18.13;6.72;;;;;;;;;;4995749;28;20148;-54
2021/03/01 07:14:09;;;;;;;20.05;5.90;;;;;;;;;;4997676;28;20153;-57
2021/03/01 07:16:36;;;;;;;18.02;7.35;;;;;;;;;;4993698;28;20054;-57
2021/03/01 07:19:03;;;;;;;22.27;7.82;;;;;;;;;;4990757;28;20050;-54
2021/03/01 07:21:30;;;;;;;22.15;6.72;;;;;;;;;;4992995;28;20030;-55
2021/03/01 07:23:57;;;;;;;20.55;7.13;;;;;;;;;;5009692;28;20044;-56
2021/03/01 07:26:24;;;;;;;21.77;7.38;;;;;;;;;;5013992;28;20041;-55
2021/03/01 07:28:55;;;;;;;20.70;7.15;;;;;;;;;;5023167;28;20053;-54
2021/03/01 07:31:22;;;;;;;20.30;8.25;;;;;;;;;;4999347;28;20045;-57
2021/03/01 07:33:48;;;;;;;20.50;7.10;;;;;;;;;;5004804;28;20439;-57
2021/03/01 07:36:15;;;;;;;24.30;8.85;;;;;;;;;;5027037;28;20103;-54
2021/03/01 07:38:41;;;;;;;21.65;7.20;;;;;;;;;;5040381;28;20037;-57
2021/03/01 07:41:08;;;;;;;20.50;7.07;;;;;;;;;;5013708;28;20034;-55
2021/03/01 07:43:35;;;;;;;26.65;9.40;;;;;;;;;;5028177;28;20069;-53
2021/03/01 07:46:03;;;;;;;29.55;8.88;;;;;;;;;;5008119;28;20037;-55
2021/03/01 07:48:36;;;;;;;23.95;8.75;;;;;;;;;;5027074;28;20408;-55
2021/03/01 07:51:02;;;;;;;21.48;6.30;;;;;;;;;;5039497;28;20470;-56
2021/03/01 07:53:50;;;;;;;25.17;7.25;;;;;;;;;;5043949;28;20049;-56
2021/03/01 07:56:47;;;;;;;20.58;7.55;;;;;;;;;;5039395;28;20061;-55
2021/03/01 07:59:14;;;;;;;22.20;7.85;;;;;;;;;;5025979;28;20045;-57
2021/03/01 08:01:41;;;;;;;19.25;5.57;;;;;;;;;;5025556;28;20037;-57
2021/03/01 08:04:26;;;;;;;22.67;8.10;;;;;;;;;;5023178;28;20105;-57
2021/03/01 08:06:53;;;;;;;25.58;9.13;;;;;;;;;;5014157;28;20038;-57
2021/03/01 08:09:34;;;;;;;25.20;8.95;;;;;;;;;;5003826;28;20046;-57
2021/03/01 08:12:00;;;;;;;20.17;7.30;;;;;;;;;;4998253;28;20034;-58
2021/03/01 08:14:41;;;;;;;19.42;6.45;;;;;;;;;;5003681;28;20057;-57
2021/03/01 08:17:22;;;;;;;23.67;7.72;;;;;;;;;;5000934;28;20057;-56
2021/03/01 08:19:49;;;;;;;15.40;5.15;;;;;;;;;;5022118;28;20042;-57
2021/03/01 08:22:15;;;;;;;17.98;6.35;;;;;;;;;;5018394;28;20042;-57
2021/03/01 08:24:44;;;;;;;26.20;6.57;;;;;;;;;;5024193;28;20123;-53
2021/03/01 08:27:24;;;;;;;18.15;6.00;;;;;;;;;;5019345;28;20041;-57
2021/03/01 08:30:07;;;;;;;22.35;7.03;;;;;;;;;;5001387;28;20045;-56
2021/03/01 08:32:33;;;;;;;20.00;6.80;;;;;;;;;;4997426;28;20035;-54
2021/03/01 08:35:14;;;;;;;17.27;6.00;;;;;;;;;;5003752;28;20045;-57
2021/03/01 08:37:47;;;;;;;17.70;6.25;;;;;;;;;;4998825;28;20065;-56
2021/03/01 08:40:19;;;;;;;18.85;6.35;;;;;;;;;;5023879;28;20030;-57
2021/03/01 08:42:55;;;;;;;23.95;7.35;;;;;;;;;;5004265;28;20046;-57
2021/03/01 08:45:38;;;;;;;21.80;6.93;;;;;;;;;;5004212;28;20467;-57
2021/03/01 08:48:05;;;;;;;17.92;7.30;;;;;;;;;;4996378;28;20054;-49
2021/03/01 08:50:33;;;;;;;19.98;6.88;;;;;;;;;;5002720;28;20393;-54
2021/03/01 08:53:00;;;;;;;20.73;8.43;;;;;;;;;;5001277;28;20122;-54
2021/03/01 08:55:26;;;;;;;18.58;6.45;;;;;;;;;;4998654;28;20030;-57
2021/03/01 08:57:59;;;;;;;19.95;6.88;;;;;;;;;;4999896;28;20034;-55
2021/03/01 09:00:26;;;;;;;17.10;6.57;;;;;;;;;;5001128;28;20049;-58
2021/03/01 09:03:07;;;;;;;20.33;7.85;;;;;;;;;;5001355;28;22546;-57
2021/03/01 09:05:33;;;;;;;17.10;6.75;;;;;;;;;;4998333;28;20050;-55
2021/03/01 09:08:00;;;;;;;19.92;7.22;;;;;;;;;;5003287;28;20049;-56
2021/03/01 09:10:33;;;;;;;16.50;6.70;;;;;;;;;;4998956;28;20042;-54
2021/03/01 09:12:59;;;;;;;16.92;7.25;;;;;;;;;;5002803;28;20030;-55
2021/03/01 09:15:25;;;;;;;22.27;7.85;;;;;;;;;;4998692;28;20053;-57
2021/03/01 09:17:51;;;;;;;18.17;6.55;;;;;;;;;;5004271;28;20052;-55
2021/03/01 09:20:17;;;;;;;15.38;6.65;;;;;;;;;;5009967;28;20161;-55
2021/03/01 09:22:43;;;;;;;18.10;6.75;;;;;;;;;;5023808;28;20495;-57
2021/03/01 09:25:24;;;;;;;16.35;5.30;;;;;;;;;;5013137;28;20098;-51
2021/03/01 09:27:51;;;;;;;15.27;4.80;;;;;;;;;;5002658;28;20034;-56
2021/03/01 09:30:19;;;;;;;14.48;6.07;;;;;;;;;;4998952;28;20053;-57
2021/03/01 09:32:53;;;;;;;22.70;8.15;;;;;;;;;;5001273;28;20090;-54
2021/03/01 09:35:20;;;;;;;11.57;4.05;;;;;;;;;;4998885;28;20038;-57
2021/03/01 09:37:46;;;;;;;19.00;6.20;;;;;;;;;;5001565;28;20132;-56
2021/03/01 09:40:16;;;;;;;14.00;4.63;;;;;;;;;;4999256;28;20114;-55
2021/03/01 09:42:46;;;;;;;14.75;5.55;;;;;;;;;;5010409;28;20057;-56
2021/03/01 09:45:14;;;;;;;17.08;5.60;;;;;;;;;;4998485;28;20038;-55
2021/03/01 09:47:40;;;;;;;15.43;6.32;;;;;;;;;;5019722;28;20046;-57
2021/03/01 09:50:07;;;;;;;13.00;4.85;;;;;;;;;;5020461;28;20041;-54
2021/03/01 09:52:33;;;;;;;13.10;4.78;;;;;;;;;;5018695;28;20045;-55
2021/03/01 09:54:59;;;;;;;20.17;6.45;;;;;;;;;;5021152;28;20041;-55
2021/03/01 09:57:32;;;;;;;17.50;6.40;;;;;;;;;;5002733;28;20057;-54
2021/03/01 09:59:58;;;;;;;12.82;5.10;;;;;;;;;;5001208;28;20030;-54
2021/03/01 10:02:25;;;;;;;15.15;6.03;;;;;;;;;;4998460;28;20132;-53
2021/03/01 10:04:52;;;;;;;16.90;5.35;;;;;;;;;;5002472;28;20062;-55
2021/03/01 10:07:19;;;;;;;15.82;4.88;;;;;;;;;;4990340;28;20033;-54
2021/03/01 10:09:46;;;;;;;19.65;6.45;;;;;;;;;;4992248;28;20083;-55
2021/03/01 10:12:13;;;;;;;17.73;6.30;;;;;;;;;;4986231;28;20035;-56
2021/03/01 10:14:41;;;;;;;18.80;4.85;;;;;;;;;;4991711;28;20047;-54
2021/03/01 10:17:17;;;;;;;14.88;5.05;;;;;;;;;;4989588;28;20030;-56
2021/03/01 10:19:45;;;;;;;15.32;5.72;;;;;;;;;;4995454;28;20085;-54
2021/03/01 10:22:11;;;;;;;19.50;5.97;;;;;;;;;;4992391;28;20081;-57
2021/03/01 10:24:44;;;;;;;13.07;5.70;;;;;;;;;;4989488;28;20043;-58
2021/03/01 10:27:10;;;;;;;12.75;4.57;;;;;;;;;;4989465;28;20065;-54
2021/03/01 10:29:41;;;;;;;20.40;5.63;;;;;;;;;;4988985;28;20042;-56
2021/03/01 10:32:17;;;;;;;17.48;6.03;;;;;;;;;;5000653;28;20485;-57
2021/03/01 10:34:44;;;;;;;19.45;6.60;;;;;;;;;;4986389;28;20136;-58
2021/03/01 10:37:11;;;;;;;14.65;5.10;;;;;;;;;;4990923;28;20105;-55
2021/03/01 10:39:42;;;;;;;18.35;5.88;;;;;;;;;;4988427;28;20054;-57
2021/03/01 10:42:12;;;;;;;16.58;5.82;;;;;;;;;;4992551;28;20090;-50
2021/03/01 10:44:40;;;;;;;17.30;5.72;;;;;;;;;;4990867;28;20054;-56
2021/03/01 10:47:13;;;;;;;20.60;6.28;;;;;;;;;;4995111;28;20075;-56
2021/03/01 10:49:40;;;;;;;13.60;4.95;;;;;;;;;;4992011;28;20055;-57
2021/03/01 10:52:08;;;;;;;16.85;5.72;;;;;;;;;;4989342;28;20049;-53
2021/03/01 10:54:35;;;;;;;19.42;6.47;;;;;;;;;;4991918;28;20140;-56
2021/03/01 10:57:01;;;;;;;21.75;7.05;;;;;;;;;;4992565;28;20049;-58
2021/03/01 10:59:27;;;;;;;22.58;6.18;;;;;;;;;;4988552;28;20042;-54
2021/03/01 11:01:53;;;;;;;17.48;5.80;;;;;;;;;;4989645;28;20050;-56
2021/03/01 11:04:19;;;;;;;19.90;7.05;;;;;;;;;;5007953;28;20053;-55
2021/03/01 11:06:45;;;;;;;15.73;5.70;;;;;;;;;;5004302;28;20040;-58
2021/03/01 11:09:13;;;;;;;23.02;6.05;;;;;;;;;;4997736;28;20049;-57
2021/03/01 11:11:41;;;;;;;17.20;6.07;;;;;;;;;;4993646;28;20054;-55
2021/03/01 11:14:09;;;;;;;14.73;5.25;;;;;;;;;;5003846;28;20045;-56
2021/03/01 11:16:35;;;;;;;12.10;4.90;;;;;;;;;;4989720;28;20042;-58
2021/03/01 11:19:00;;;;;;;15.60;5.82;;;;;;;;;;4992503;28;20205;-57
2021/03/01 11:21:27;;;;;;;16.88;5.60;;;;;;;;;;4994267;28;20038;-58
2021/03/01 11:23:56;;;;;;;14.60;5.53;;;;;;;;;;4986662;28;20061;-57
2021/03/01 11:26:23;;;;;;;17.25;5.40;;;;;;;;;;5005759;28;20106;-56
2021/03/01 11:28:48;;;;;;;17.13;6.60;;;;;;;;;;5007003;28;20034;-55
2021/03/01 11:31:15;;;;;;;12.43;4.05;;;;;;;;;;5019939;28;20060;-56
2021/03/01 11:33:42;;;;;;;11.85;5.20;;;;;;;;;;5024920;28;20056;-57
2021/03/01 11:36:08;;;;;;;12.18;4.22;;;;;;;;;;4997817;28;20073;-57
2021/03/01 11:38:36;;;;;;;22.42;5.80;;;;;;;;;;5007020;28;20050;-54
2021/03/01 11:41:03;;;;;;;21.80;6.25;;;;;;;;;;5011163;28;20060;-55
2021/03/01 11:43:30;;;;;;;14.50;5.25;;;;;;;;;;5022738;28;20060;-57
2021/03/01 11:45:56;;;;;;;13.13;4.85;;;;;;;;;;5020064;28;20041;-57
2021/03/01 11:48:24;;;;;;;18.30;5.88;;;;;;;;;;5005399;28;20034;-52
2021/03/01 11:50:51;;;;;;;15.80;5.85;;;;;;;;;;5009264;28;20050;-58
2021/03/01 11:53:17;;;;;;;18.73;5.55;;;;;;;;;;5043429;28;20052;-55
2021/03/01 11:55:44;;;;;;;16.63;5.63;;;;;;;;;;5035358;28;20041;-56
2021/03/01 11:58:10;;;;;;;19.05;6.53;;;;;;;;;;5022952;28;20045;-56
2021/03/01 12:00:40;;;;;;;23.15;5.60;;;;;;;;;;5019851;28;20065;-57
2021/03/01 12:03:06;;;;;;;17.50;6.05;;;;;;;;;;5007054;28;20058;-54
2021/03/01 12:05:32;;;;;;;15.40;5.68;;;;;;;;;;5022833;28;20057;-54
2021/03/01 12:07:58;;;;;;;17.88;5.95;;;;;;;;;;5005126;28;20042;-54
2021/03/01 12:10:24;;;;;;;15.27;6.15;;;;;;;;;;5007844;28;20069;-54
2021/03/01 12:12:50;;;;;;;16.38;5.75;;;;;;;;;;5005498;28;20116;-51
2021/03/01 12:15:18;;;;;;;14.00;4.93;;;;;;;;;;5009599;28;20037;-53
2021/03/01 12:17:45;;;;;;;14.37;4.30;;;;;;;;;;5035112;28;20043;-58
2021/03/01 12:20:16;;;;;;;15.52;5.03;;;;;;;;;;5026806;28;20419;-57
2021/03/01 12:22:42;;;;;;;18.55;6.65;;;;;;;;;;5022104;28;20037;-54
2021/03/01 12:25:09;;;;;;;18.20;4.60;;;;;;;;;;5025186;28;20041;-55
2021/03/01 12:27:35;;;;;;;18.25;4.60;;;;;;;;;;5022524;28;20029;-55
2021/03/01 12:30:04;;;;;;;15.82;5.18;;;;;;;;;;5043366;28;20037;-57
2021/03/01 12:32:30;;;;;;;14.57;6.45;;;;;;;;;;5030629;28;20096;-58
2021/03/01 12:34:58;;;;;;;14.20;5.53;;;;;;;;;;5007566;28;20069;-55
2021/03/01 12:37:25;;;;;;;15.93;5.47;;;;;;;;;;5001144;28;20109;-52
2021/03/01 12:39:51;;;;;;;16.27;4.53;;;;;;;;;;5008998;28;20038;-55
2021/03/01 12:42:17;;;;;;;16.00;5.55;;;;;;;;;;5003880;28;20033;-56
2021/03/01 12:44:43;;;;;;;14.93;5.07;;;;;;;;;;5007123;28;20049;-55
2021/03/01 12:47:09;;;;;;;15.70;5.25;;;;;;;;;;5022316;28;20026;-55
2021/03/01 12:49:37;;;;;;;13.77;5.00;;;;;;;;;;5018211;28;20038;-55
2021/03/01 12:52:04;;;;;;;16.98;5.85;;;;;;;;;;5004321;28;20042;-51
2021/03/01 12:54:31;;;;;;;15.65;5.65;;;;;;;;;;5016572;28;20041;-50
2021/03/01 12:56:58;;;;;;;14.98;5.10;;;;;;;;;;5025505;28;20049;-55
2021/03/01 12:59:24;;;;;;;15.27;5.72;;;;;;;;;;5034612;28;20049;-56
2021/03/01 13:01:50;;;;;;;16.90;5.68;;;;;;;;;;5040928;28;20061;-55
2021/03/01 13:04:16;;;;;;;15.30;4.78;;;;;;;;;;5025367;28;20136;-57
2021/03/01 13:06:42;;;;;;;13.75;5.63;;;;;;;;;;5005238;28;20057;-57
2021/03/01 13:09:09;;;;;;;14.93;5.22;;;;;;;;;;5003387;28;20092;-54
2021/03/01 13:11:35;;;;;;;16.17;5.60;;;;;;;;;;5022042;28;20037;-53
2021/03/01 13:14:01;;;;;;;11.90;4.82;;;;;;;;;;5018474;28;20180;-53
2021/03/01 13:16:27;;;;;;;14.98;6.00;;;;;;;;;;4988322;28;20034;-55
2021/03/01 13:18:53;;;;;;;15.30;5.50;;;;;;;;;;5001156;28;20112;-55
2021/03/01 13:21:19;;;;;;;17.15;4.82;;;;;;;;;;5022210;28;20225;-54
2021/03/01 13:23:47;;;;;;;16.40;5.65;;;;;;;;;;5002683;28;20132;-53
2021/03/01 13:26:15;;;;;;;13.73;5.15;;;;;;;;;;5004736;28;20048;-55
2021/03/01 13:28:44;;;;;;;17.05;6.53;;;;;;;;;;5005807;28;20038;-53
2021/03/01 13:31:11;;;;;;;13.73;5.70;;;;;;;;;;5038226;28;20128;-56
2021/03/01 13:33:37;;;;;;;14.88;5.25;;;;;;;;;;5024920;28;20037;-57
2021/03/01 13:36:04;;;;;;;15.48;5.85;;;;;;;;;;5006268;28;20041;-54
2021/03/01 13:38:30;;;;;;;14.65;5.35;;;;;;;;;;5022716;28;20057;-55
2021/03/01 13:40:56;;;;;;;14.02;5.72;;;;;;;;;;5021567;28;20111;-57
2021/03/01 13:43:23;;;;;;;18.83;6.25;;;;;;;;;;5032451;28;20112;-53
2021/03/01 13:45:50;;;;;;;16.98;6.45;;;;;;;;;;5012965;28;20044;-55
2021/03/01 13:48:16;;;;;;;17.85;6.28;;;;;;;;;;5042413;28;20130;-57
2021/03/01 13:50:43;;;;;;;14.55;6.15;;;;;;;;;;5030410;28;20046;-56
2021/03/01 13:53:09;;;;;;;16.95;5.85;;;;;;;;;;5005405;28;20056;-57
2021/03/01 13:55:35;;;;;;;19.67;6.38;;;;;;;;;;5008519;28;20114;-54
2021/03/01 13:58:02;;;;;;;22.45;7.15;;;;;;;;;;5024387;28;20125;-53
2021/03/01 14:00:32;;;;;;;15.52;5.78;;;;;;;;;;5018150;28;20122;-55
2021/03/01 14:02:58;;;;;;;16.20;5.82;;;;;;;;;;5005155;28;20033;-57
2021/03/01 14:05:24;;;;;;;17.58;5.78;;;;;;;;;;5019599;28;20037;-58
2021/03/01 14:07:50;;;;;;;15.95;6.38;;;;;;;;;;5025642;28;20115;-57
2021/03/01 14:10:16;;;;;;;16.02;5.15;;;;;;;;;;5040273;28;20041;-58
2021/03/01 14:12:44;;;;;;;14.70;5.75;;;;;;;;;;5038385;28;20037;-55
2021/03/01 14:15:10;;;;;;;16.83;6.32;;;;;;;;;;5021682;28;20126;-59
2021/03/01 14:17:37;;;;;;;16.05;5.88;;;;;;;;;;5021253;28;20060;-53
2021/03/01 14:20:04;;;;;;;18.50;6.88;;;;;;;;;;5042386;28;20038;-56
2021/03/01 14:22:30;;;;;;;15.77;5.78;;;;;;;;;;5007432;28;20095;-53
2021/03/01 14:24:57;;;;;;;15.07;5.45;;;;;;;;;;5005153;28;20073;-54
2021/03/01 14:27:24;;;;;;;17.73;5.85;;;;;;;;;;5011523;28;20026;-56
2021/03/01 14:29:50;;;;;;;17.25;5.78;;;;;;;;;;5023959;28;20037;-55
2021/03/01 14:32:16;;;;;;;18.08;7.10;;;;;;;;;;5013369;28;20159;-55
2021/03/01 14:34:43;;;;;;;19.02;6.53;;;;;;;;;;5020044;28;20045;-57